Calgary/Springbank Airport

Airport
ICAO code: 
CYBW
IATA Code: 
YBW
Summary
ICAO Region: 
NAM
Territory: 
Location: 
Springbank, Alberta
Serving: 
Calgary
Elevation: 
3940 ft
Coordinates: 
Aerial View: 
51° 6' 17.168" N, 114° 22' 42.903" W
Metar
Observation
CYBW 271100Z AUTO 13008KT 9SM BKN009 OVC013 M02/M04 A3007 RMK SLP227
Station
Calgary / Springbank
Date/Time
2021-11-27 11:00:00
Wind direction
130°
Wind speed
08 kts
Lowest cloud amount
broken clouds
Temperature
-2°C
Dew point
-4°C
Humidity
86%
Weather condition
n/a

Calgary/Springbank Airport or Springbank Airport, is an airport located in Springbank, Alberta, a large western suburb of Calgary, Alberta, Canada.

Climatology

Humid continental climate (Köppen climate classification Dfb)

Runways

Designator Length Width Surface Rops
7/25 1036 30 ASP No/No
16/34 1524 30 ASP No/No
Airport map: 
Aerial View: 

SKYbrary Partners:

Safety knowledge contributed by: